Time;durP1;ratioP1;P1;durP2;ratioP2;P2;SDS_P1;SDS_P2;PMS_P1;PMS_P2;Temp;Humidity;BMP_temperature;BMP_pressure;BME280_temperature;BME280_humidity;BME280_pressure;Samples;Min_cycle;Max_cycle;Signal;HPM_P1;HPM_P2
2023/08/30 00:02:32;;;;;;;;;;;;;;;11.94;100.00;95142.78;10530270;28;2171;-71
2023/08/30 00:07:35;;;;;;;;;;;;;;;11.98;100.00;95141.91;10525675;28;2157;-74
2023/08/30 00:12:37;;;;;;;;;;;;;;;11.85;100.00;95138.09;10525656;28;2333;-73
2023/08/30 00:17:40;;;;;;;;;;;;;;;11.88;100.00;95139.38;10528193;28;1949;-74
2023/08/30 00:22:42;;;;;;;;;;;;;;;11.93;100.00;95133.13;10543198;27;2042;-74
2023/08/30 00:27:45;;;;;;;;;;;;;;;11.96;100.00;95138.72;10533289;28;1895;-74
2023/08/30 00:32:47;;;;;;;;;;;;;;;11.89;100.00;95139.06;10522433;28;1895;-73
2023/08/30 00:37:49;;;;;;;;;;;;;;;11.89;100.00;95143.66;10530364;28;1915;-73
2023/08/30 00:42:52;;;;;;;;;;;;;;;11.84;100.00;95136.50;10528090;28;2020;-73
2023/08/30 00:47:55;;;;;;;;;;;;;;;11.92;100.00;95132.31;10519646;28;2028;-73
2023/08/30 00:52:57;;;;;;;;;;;;;;;11.99;100.00;95134.63;10526257;28;1890;-73
2023/08/30 00:57:59;;;;;;;;;;;;;;;11.96;100.00;95129.81;10522089;28;1893;-74
2023/08/30 01:03:02;;;;;;;;;;;;;;;11.94;100.00;95126.63;10529512;28;2078;-74
2023/08/30 01:08:04;;;;;;;;;;;;;;;11.88;100.00;95132.09;10528640;28;2549;-73
2023/08/30 01:13:07;;;;;;;;;;;;;;;11.92;100.00;95134.22;10536298;28;1913;-74
2023/08/30 01:18:10;;;;;;;;;;;;;;;11.83;100.00;95136.78;10528181;28;1967;-73
2023/08/30 01:23:13;;;;;;;;;;;;;;;11.77;100.00;95135.25;10531390;28;1975;-74
2023/08/30 01:28:15;;;;;;;;;;;;;;;11.81;100.00;95131.69;10526607;28;1912;-74
2023/08/30 01:33:18;;;;;;;;;;;;;;;11.79;100.00;95128.47;10528033;28;1954;-74
2023/08/30 01:38:21;;;;;;;;;;;;;;;11.77;100.00;95129.84;10525548;28;2054;-74
2023/08/30 01:43:23;;;;;;;;;;;;;;;11.73;100.00;95134.25;10524815;28;4587;-74
2023/08/30 01:48:26;;;;;;;;;;;;;;;11.61;100.00;95132.03;10523599;28;1905;-73
2023/08/30 01:53:28;;;;;;;;;;;;;;;11.69;100.00;95131.34;10524738;28;1870;-74
2023/08/30 01:58:31;;;;;;;;;;;;;;;11.70;100.00;95130.25;10532979;28;1913;-73
2023/08/30 02:03:33;;;;;;;;;;;;;;;11.78;100.00;95126.88;10535800;28;2437;-75
2023/08/30 02:08:36;;;;;;;;;;;;;;;11.78;100.00;95129.56;10532885;28;1898;-74
2023/08/30 02:13:38;;;;;;;;;;;;;;;11.80;100.00;95130.06;10535939;28;2136;-74
2023/08/30 02:18:40;;;;;;;;;;;;;;;11.83;100.00;95134.09;10534475;28;1867;-74
2023/08/30 02:23:43;;;;;;;;;;;;;;;11.82;100.00;95122.50;10544663;28;1915;-72
2023/08/30 02:28:45;;;;;;;;;;;;;;;11.80;100.00;95123.88;10537941;28;1962;-72
2023/08/30 02:33:47;;;;;;;;;;;;;;;11.81;100.00;95118.22;10537028;28;1944;-73
2023/08/30 02:38:50;;;;;;;;;;;;;;;11.85;100.00;95118.44;10532116;28;1985;-74
2023/08/30 02:43:52;;;;;;;;;;;;;;;11.85;100.00;95129.22;10529272;28;4540;-73
2023/08/30 02:48:55;;;;;;;;;;;;;;;11.80;100.00;95119.31;10521853;28;1916;-73
2023/08/30 02:53:57;;;;;;;;;;;;;;;11.81;100.00;95120.91;10531604;28;1871;-72
2023/08/30 02:59:00;;;;;;;;;;;;;;;11.78;100.00;95126.09;10532320;28;1882;-72
2023/08/30 03:04:03;;;;;;;;;;;;;;;11.82;100.00;95132.50;10532468;28;2408;-73
2023/08/30 03:09:06;;;;;;;;;;;;;;;11.81;100.00;95125.50;10532263;28;1878;-73
2023/08/30 03:14:08;;;;;;;;;;;;;;;11.80;100.00;95124.69;10535934;28;1893;-73
2023/08/30 03:19:11;;;;;;;;;;;;;;;11.78;100.00;95121.50;10529592;28;2001;-73
2023/08/30 03:24:15;;;;;;;;;;;;;;;11.74;100.00;95115.09;10533972;28;1983;-72
2023/08/30 03:29:18;;;;;;;;;;;;;;;11.70;100.00;95114.09;10546290;27;1850;-73
2023/08/30 03:34:20;;;;;;;;;;;;;;;11.76;100.00;95115.59;10532844;28;1913;-73
2023/08/30 03:39:24;;;;;;;;;;;;;;;11.78;100.00;95121.50;10531928;28;1892;-73
2023/08/30 03:44:26;;;;;;;;;;;;;;;11.85;100.00;95116.56;10528426;28;4528;-75
2023/08/30 03:49:29;;;;;;;;;;;;;;;11.80;100.00;95119.31;10529298;28;2043;-74
2023/08/30 03:54:31;;;;;;;;;;;;;;;11.80;100.00;95122.00;10526351;28;1947;-73
2023/08/30 03:59:34;;;;;;;;;;;;;;;11.75;100.00;95124.78;10529675;28;2353;-75
2023/08/30 04:04:36;;;;;;;;;;;;;;;11.83;100.00;95118.75;10539578;28;2023;-73
2023/08/30 04:09:39;;;;;;;;;;;;;;;11.88;100.00;95124.03;10529484;28;1904;-73
2023/08/30 04:14:42;;;;;;;;;;;;;;;11.87;100.00;95114.34;10532797;28;1835;-74
2023/08/30 04:19:44;;;;;;;;;;;;;;;11.95;100.00;95120.13;10529581;28;1909;-73
2023/08/30 04:24:46;;;;;;;;;;;;;;;11.88;100.00;95126.72;10526994;28;1909;-74
2023/08/30 04:29:49;;;;;;;;;;;;;;;11.93;100.00;95128.53;10529237;28;1914;-73
2023/08/30 04:34:51;;;;;;;;;;;;;;;11.83;100.00;95126.84;10528416;28;1834;-72
2023/08/30 04:39:53;;;;;;;;;;;;;;;11.81;100.00;95126.31;10531069;28;1890;-73
2023/08/30 04:44:56;;;;;;;;;;;;;;;11.81;100.00;95125.50;10529846;28;4587;-72
2023/08/30 04:49:58;;;;;;;;;;;;;;;11.70;100.00;95122.16;10528156;28;1887;-72
2023/08/30 04:55:00;;;;;;;;;;;;;;;11.64;100.00;95120.66;10526895;28;2331;-73
2023/08/30 05:00:04;;;;;;;;;;;;;;;11.58;100.00;95121.88;10525290;28;1948;-73
2023/08/30 05:05:07;;;;;;;;;;;;;;;11.54;100.00;95131.59;10524495;28;1983;-72
2023/08/30 05:10:10;;;;;;;;;;;;;;;11.54;100.00;95131.59;10530224;28;1838;-72
2023/08/30 05:15:12;;;;;;;;;;;;;;;11.62;100.00;95133.63;10518157;28;1867;-73
2023/08/30 05:20:14;;;;;;;;;;;;;;;11.73;100.00;95129.66;10524438;28;1987;-74
2023/08/30 05:25:17;;;;;;;;;;;;;;;11.73;100.00;95129.66;10522259;28;2042;-74
2023/08/30 05:30:19;;;;;;;;;;;;;;;11.76;100.00;95139.03;10516711;28;1890;-78
2023/08/30 05:35:22;;;;;;;;;;;;;;;11.82;100.00;95144.06;10523544;28;1932;-77
2023/08/30 05:40:24;;;;;;;;;;;;;;;11.83;100.00;95139.47;10527795;28;1932;-75
2023/08/30 05:45:26;;;;;;;;;;;;;;;11.91;100.00;95130.72;10529364;28;4505;-75
2023/08/30 05:50:29;;;;;;;;;;;;;;;11.92;100.00;95132.31;10515080;28;2435;-75
2023/08/30 05:55:31;;;;;;;;;;;;;;;11.93;100.00;95135.81;10514999;28;1971;-74
2023/08/30 06:00:34;;;;;;;;;;;;;;;12.00;100.00;95139.69;10512651;28;2009;-74
2023/08/30 06:05:36;;;;;;;;;;;;;;;12.17;100.00;95145.31;10518759;28;2006;-75
2023/08/30 06:10:38;;;;;;;;;;;;;;;12.20;100.00;95138.53;10517225;28;1893;-75
2023/08/30 06:15:41;;;;;;;;;;;;;;;12.40;100.00;95140.81;10516595;28;1902;-74
2023/08/30 06:20:43;;;;;;;;;;;;;;;12.35;100.00;95132.84;10515724;28;1979;-74
2023/08/30 06:25:46;;;;;;;;;;;;;;;12.64;100.00;95150.59;10521597;28;2032;-74
2023/08/30 06:30:48;;;;;;;;;;;;;;;12.49;100.00;95148.22;10513928;28;2104;-75
2023/08/30 06:35:53;;;;;;;;;;;;;;;12.69;100.00;95145.09;10512317;28;2006;-74
2023/08/30 06:40:57;;;;;;;;;;;;;;;12.80;100.00;95134.91;10515265;28;4548;-74
2023/08/30 06:46:00;;;;;;;;;;;;;;;13.09;100.00;95129.91;10524452;28;2318;-74
2023/08/30 06:51:03;;;;;;;;;;;;;;;13.22;100.00;95133.69;10523745;28;1952;-73
2023/08/30 06:56:05;;;;;;;;;;;;;;;13.35;100.00;95138.25;10523570;28;1934;-74
2023/08/30 07:01:08;;;;;;;;;;;;;;;13.59;100.00;95137.16;10521368;28;1932;-76
2023/08/30 07:06:10;;;;;;;;;;;;;;;13.55;100.00;95134.28;10531395;28;1955;-76
2023/08/30 07:11:12;;;;;;;;;;;;;;;13.42;100.00;95122.44;10528999;28;1930;-76
2023/08/30 07:16:34;;;;;;;;;;;;;;;13.83;100.00;95124.09;10526084;28;1904;-76
2023/08/30 07:21:38;;;;;;;;;;;;;;;14.04;100.00;95119.75;10526690;28;1839;-77
2023/08/30 07:26:41;;;;;;;;;;;;;;;14.25;100.00;95108.38;10531268;28;1941;-75
2023/08/30 07:31:43;;;;;;;;;;;;;;;14.44;100.00;95110.84;10528624;28;1930;-74
2023/08/30 07:36:46;;;;;;;;;;;;;;;14.13;100.00;95105.50;10530626;28;1823;-74
2023/08/30 07:41:49;;;;;;;;;;;;;;;14.06;100.00;95122.97;10529084;28;4401;-75
2023/08/30 07:46:52;;;;;;;;;;;;;;;14.11;100.00;95122.00;10527451;28;1960;-75
2023/08/30 07:51:55;;;;;;;;;;;;;;;14.30;100.00;95130.66;10522663;28;1886;-74
2023/08/30 07:56:57;;;;;;;;;;;;;;;14.35;100.00;95137.84;10530401;28;1839;-75
2023/08/30 08:02:00;;;;;;;;;;;;;;;14.35;100.00;95135.16;10524871;28;2020;-75
2023/08/30 08:07:02;;;;;;;;;;;;;;;14.37;100.00;95134.81;10525559;28;2008;-76
2023/08/30 08:12:05;;;;;;;;;;;;;;;14.44;100.00;95136.00;10530111;28;1866;-75
2023/08/30 08:17:07;;;;;;;;;;;;;;;14.72;100.00;95123.03;10529097;28;1878;-74
2023/08/30 08:22:09;;;;;;;;;;;;;;;14.78;100.00;95134.50;10529110;28;1866;-74
2023/08/30 08:27:12;;;;;;;;;;;;;;;15.30;100.00;95129.16;10519498;28;1975;-74
2023/08/30 08:32:15;;;;;;;;;;;;;;;15.37;100.00;95138.38;10529183;28;1982;-74
2023/08/30 08:37:17;;;;;;;;;;;;;;;15.50;100.00;95125.78;10524345;28;1972;-75
2023/08/30 08:42:20;;;;;;;;;;;;;;;15.81;100.00;95124.81;10514890;28;4572;-75
2023/08/30 08:47:22;;;;;;;;;;;;;;;16.24;100.00;95115.75;10521816;28;2009;-76
2023/08/30 08:52:24;;;;;;;;;;;;;;;16.91;100.00;95117.66;10523006;28;1842;-75
2023/08/30 08:57:37;;;;;;;;;;;;;;;17.19;100.00;95105.16;10524347;28;1863;-75
2023/08/30 09:02:39;;;;;;;;;;;;;;;16.98;100.00;95098.91;10520230;28;1889;-76
2023/08/30 09:07:42;;;;;;;;;;;;;;;17.36;100.00;95100.72;10516810;28;1925;-75
2023/08/30 09:12:44;;;;;;;;;;;;;;;17.39;100.00;95086.47;10524759;28;1875;-76
2023/08/30 09:17:47;;;;;;;;;;;;;;;17.03;100.00;95085.16;10524880;28;1866;-76
2023/08/30 09:22:50;;;;;;;;;;;;;;;16.97;100.00;95086.47;10522385;28;1890;-76
2023/08/30 09:27:52;;;;;;;;;;;;;;;17.26;100.00;95075.56;10529984;28;1914;-76
2023/08/30 09:32:55;;;;;;;;;;;;;;;17.90;100.00;95073.53;10527966;28;1957;-76
2023/08/30 09:37:57;;;;;;;;;;;;;;;17.92;100.00;95076.69;10522388;28;2591;-75
2023/08/30 09:43:00;;;;;;;;;;;;;;;18.50;100.00;95067.34;10518879;28;4568;-74
2023/08/30 09:48:15;;;;;;;;;;;;;;;18.84;100.00;95051.69;10521076;28;2032;-73
2023/08/30 09:53:17;;;;;;;;;;;;;;;20.64;100.00;95050.66;10521304;28;1814;-74
2023/08/30 09:58:20;;;;;;;;;;;;;;;21.00;100.00;95041.31;10516803;28;2176;-75
2023/08/30 10:03:24;;;;;;;;;;;;;;;20.91;100.00;95041.50;10514135;28;2233;-75
2023/08/30 10:08:33;;;;;;;;;;;;;;;20.23;100.00;95026.28;10518753;28;2034;-75
2023/08/30 10:13:35;;;;;;;;;;;;;;;19.55;100.00;95022.94;10522809;28;1776;-74
2023/08/30 10:18:38;;;;;;;;;;;;;;;18.85;100.00;95020.59;10518291;28;1831;-75
2023/08/30 10:23:50;;;;;;;;;;;;;;;18.55;100.00;95025.50;10528762;28;1954;-75
2023/08/30 10:28:52;;;;;;;;;;;;;;;18.51;100.00;95024.56;10535338;28;1991;-75
2023/08/30 10:33:55;;;;;;;;;;;;;;;18.31;100.00;95021.66;10530571;28;2368;-74
2023/08/30 10:38:57;;;;;;;;;;;;;;;18.44;100.00;95021.63;10528799;28;2093;-73
2023/08/30 10:44:00;;;;;;;;;;;;;;;18.69;100.00;95015.06;10528099;28;2004;-74
2023/08/30 10:49:03;;;;;;;;;;;;;;;19.79;100.00;95017.38;10526814;28;1930;-74
2023/08/30 10:54:06;;;;;;;;;;;;;;;19.57;100.00;95009.75;10526906;28;1878;-74
2023/08/30 10:59:08;;;;;;;;;;;;;;;20.70;100.00;95005.53;10524040;28;1985;-75
2023/08/30 11:04:11;;;;;;;;;;;;;;;20.85;100.00;95001.94;10528779;28;1843;-74
2023/08/30 11:09:18;;;;;;;;;;;;;;;21.10;100.00;95001.69;10535077;28;2055;-75
2023/08/30 11:14:20;;;;;;;;;;;;;;;21.02;100.00;95007.00;10528999;28;1913;-74
2023/08/30 11:19:22;;;;;;;;;;;;;;;20.72;100.00;94998.56;10524614;28;1863;-74
2023/08/30 11:24:26;;;;;;;;;;;;;;;20.99;100.00;94996.00;10524429;28;2001;-72
2023/08/30 11:29:29;;;;;;;;;;;;;;;21.14;100.00;94986.94;10532580;28;2335;-73
2023/08/30 11:34:31;;;;;;;;;;;;;;;20.36;100.00;94985.22;10536767;28;1894;-73
2023/08/30 11:39:34;;;;;;;;;;;;;;;20.45;100.00;94977.66;10533568;28;1965;-74
2023/08/30 11:44:36;;;;;;;;;;;;;;;19.97;100.00;94977.69;10533023;28;1909;-75
2023/08/30 11:49:40;;;;;;;;;;;;;;;19.14;100.00;94981.34;10522254;28;1921;-75
2023/08/30 11:54:42;;;;;;;;;;;;;;;18.77;100.00;94981.47;10526269;28;1927;-74
2023/08/30 11:59:45;;;;;;;;;;;;;;;19.02;100.00;94973.22;10527919;28;2038;-76
2023/08/30 12:04:47;;;;;;;;;;;;;;;18.46;100.00;94973.91;10523532;28;1910;-75
2023/08/30 12:09:50;;;;;;;;;;;;;;;18.32;100.00;94974.28;10524878;28;1814;-76
2023/08/30 12:14:52;;;;;;;;;;;;;;;18.33;100.00;94975.88;10533310;28;1925;-76
2023/08/30 12:19:55;;;;;;;;;;;;;;;18.51;100.00;94959.25;10525262;28;1870;-76
2023/08/30 12:24:59;;;;;;;;;;;;;;;18.30;100.00;94957.50;10526932;28;2377;-76
2023/08/30 12:30:03;;;;;;;;;;;;;;;18.80;100.00;94961.72;10520086;28;1953;-76
2023/08/30 12:35:06;;;;;;;;;;;;;;;18.98;100.00;94964.16;10522776;28;1909;-77
2023/08/30 12:40:09;;;;;;;;;;;;;;;19.29;100.00;94960.72;10516445;28;1920;-77
2023/08/30 12:45:12;;;;;;;;;;;;;;;19.33;100.00;94961.59;10519693;28;4595;-77
2023/08/30 12:50:15;;;;;;;;;;;;;;;19.81;100.00;94957.81;10519868;28;1957;-77
2023/08/30 12:55:19;;;;;;;;;;;;;;;20.56;100.00;94950.63;10526894;28;1887;-76
2023/08/30 13:00:21;;;;;;;;;;;;;;;21.24;100.00;94945.34;10522621;28;1898;-75
2023/08/30 13:05:24;;;;;;;;;;;;;;;21.45;100.00;94934.09;10526073;28;2086;-75
2023/08/30 13:10:26;;;;;;;;;;;;;;;20.49;100.00;94946.59;10523803;28;2459;-75
2023/08/30 13:15:29;;;;;;;;;;;;;;;20.06;100.00;94944.78;10527778;28;1890;-75
2023/08/30 13:20:32;;;;;;;;;;;;;;;19.18;100.00;94938.66;10528464;28;2285;-75
2023/08/30 13:25:35;;;;;;;;;;;;;;;18.67;100.00;94957.44;10514536;28;1985;-74
2023/08/30 13:30:37;;;;;;;;;;;;;;;17.87;100.00;94952.63;10524828;28;1823;-74
2023/08/30 13:35:40;;;;;;;;;;;;;;;17.52;100.00;94953.03;10522126;28;1987;-75
2023/08/30 13:40:42;;;;;;;;;;;;;;;17.50;100.00;94955.31;10535625;28;4643;-77
2023/08/30 13:45:46;;;;;;;;;;;;;;;17.43;100.00;94965.13;10523593;28;1975;-76
2023/08/30 13:50:49;;;;;;;;;;;;;;;17.51;100.00;94961.53;10519119;28;1807;-75
2023/08/30 13:55:51;;;;;;;;;;;;;;;17.47;100.00;94960.63;10525239;28;1704;-75
2023/08/30 14:00:54;;;;;;;;;;;;;;;17.51;100.00;94967.75;10537427;28;1857;-75
2023/08/30 14:05:56;;;;;;;;;;;;;;;17.75;100.00;94966.22;10536777;28;1973;-75
2023/08/30 14:10:59;;;;;;;;;;;;;;;17.99;100.00;94977.13;10535552;28;1827;-75
2023/08/30 14:16:01;;;;;;;;;;;;;;;17.93;100.00;94983.91;10527113;28;2432;-75
2023/08/30 14:21:04;;;;;;;;;;;;;;;17.87;100.00;94974.38;10528991;28;1975;-75
2023/08/30 14:26:10;;;;;;;;;;;;;;;18.07;100.00;94972.72;10532532;28;1917;-74
2023/08/30 14:31:13;;;;;;;;;;;;;;;18.13;100.00;94974.03;10533585;28;1795;-74
2023/08/30 14:36:16;;;;;;;;;;;;;;;18.67;100.00;94970.28;10530176;28;1902;-75
2023/08/30 14:41:18;;;;;;;;;;;;;;;19.22;100.00;94972.22;10523916;28;4501;-75
2023/08/30 14:46:21;;;;;;;;;;;;;;;19.33;100.00;94973.28;10528257;28;1989;-75
2023/08/30 14:51:25;;;;;;;;;;;;;;;19.70;100.00;94963.00;10530646;28;1882;-76
2023/08/30 14:56:28;;;;;;;;;;;;;;;20.05;100.00;94958.78;10530184;28;1871;-74
2023/08/30 15:01:30;;;;;;;;;;;;;;;20.12;100.00;94959.75;10535080;28;2105;-75
2023/08/30 15:06:33;;;;;;;;;;;;;;;19.87;100.00;94963.81;10524988;28;1971;-73
2023/08/30 15:11:35;;;;;;;;;;;;;;;19.59;100.00;94969.31;10522491;28;2313;-75
2023/08/30 15:16:38;;;;;;;;;;;;;;;19.66;100.00;94951.22;10535861;28;1811;-74
2023/08/30 15:21:40;;;;;;;;;;;;;;;19.39;100.00;94954.75;10523739;28;1886;-75
2023/08/30 15:26:48;;;;;;;;;;;;;;;19.36;100.00;94950.81;10521224;28;1898;-75
2023/08/30 15:31:53;;;;;;;;;;;;;;;19.02;100.00;94951.41;10524224;28;1846;-74
2023/08/30 15:36:56;;;;;;;;;;;;;;;18.63;100.00;94961.97;10533745;28;1834;-75
2023/08/30 15:41:59;;;;;;;;;;;;;;;18.58;100.00;94970.38;10522430;28;4636;-75
2023/08/30 15:47:01;;;;;;;;;;;;;;;18.47;100.00;94974.72;10533389;28;1917;-74
2023/08/30 15:52:04;;;;;;;;;;;;;;;18.30;100.00;94960.22;10529632;28;1890;-75
2023/08/30 15:57:07;;;;;;;;;;;;;;;18.29;100.00;94963.28;10523658;28;1752;-74
2023/08/30 16:02:10;;;;;;;;;;;;;;;18.10;100.00;94972.03;10524455;28;1901;-75
2023/08/30 16:07:12;;;;;;;;;;;;;;;18.18;100.00;94973.81;10525717;28;1989;-75
2023/08/30 16:12:15;;;;;;;;;;;;;;;18.20;100.00;94973.50;10525021;28;2237;-75
2023/08/30 16:17:18;;;;;;;;;;;;;;;18.34;100.00;94969.28;10527634;28;1775;-75
2023/08/30 16:22:20;;;;;;;;;;;;;;;18.29;100.00;94958.63;10530878;28;1827;-74
2023/08/30 16:27:22;;;;;;;;;;;;;;;18.22;100.00;94955.69;10527130;28;1906;-76
2023/08/30 16:32:25;;;;;;;;;;;;;;;18.00;100.00;94967.03;10521248;28;1866;-76
2023/08/30 16:37:27;;;;;;;;;;;;;;;18.02;100.00;94981.09;10531118;28;1790;-76
2023/08/30 16:42:30;;;;;;;;;;;;;;;17.79;100.00;94976.09;10530699;28;4480;-77
2023/08/30 16:47:32;;;;;;;;;;;;;;;17.73;100.00;94985.59;10536489;28;1905;-76
2023/08/30 16:52:44;;;;;;;;;;;;;;;17.75;100.00;94983.34;10533365;28;1791;-76
2023/08/30 16:57:46;;;;;;;;;;;;;;;17.71;100.00;94984.31;10525274;28;1878;-77
2023/08/30 17:02:51;;;;;;;;;;;;;;;17.59;100.00;94984.31;10520707;28;1830;-75
2023/08/30 17:07:54;;;;;;;;;;;;;;;17.42;100.00;94990.72;10521645;28;2328;-76
2023/08/30 17:12:57;;;;;;;;;;;;;;;17.44;100.00;94991.19;10522800;28;1839;-73
2023/08/30 17:18:00;;;;;;;;;;;;;;;17.39;100.00;94994.09;10520927;28;1795;-75
2023/08/30 17:23:02;;;;;;;;;;;;;;;17.04;100.00;94997.13;10520197;28;1787;-74
2023/08/30 17:28:05;;;;;;;;;;;;;;;16.73;100.00;95009.22;10521199;28;1914;-74
2023/08/30 17:33:07;;;;;;;;;;;;;;;16.57;100.00;95005.47;10518742;28;1866;-74
2023/08/30 17:38:12;;;;;;;;;;;;;;;16.43;100.00;95010.38;10532138;28;1847;-76
2023/08/30 17:43:14;;;;;;;;;;;;;;;16.30;100.00;95000.56;10530871;28;4485;-74
2023/08/30 17:48:16;;;;;;;;;;;;;;;16.04;100.00;95009.63;10520679;28;2085;-74
2023/08/30 17:53:19;;;;;;;;;;;;;;;15.85;100.00;95006.53;10523145;28;1929;-73
2023/08/30 17:58:22;;;;;;;;;;;;;;;15.50;100.00;95012.03;10527739;28;1909;-76
2023/08/30 18:03:28;;;;;;;;;;;;;;;15.20;100.00;95019.25;10529238;28;2210;-75
2023/08/30 18:08:31;;;;;;;;;;;;;;;14.97;100.00;95021.34;10519691;28;1914;-75
2023/08/30 18:13:33;;;;;;;;;;;;;;;14.76;100.00;95037.44;10525165;28;1791;-75
2023/08/30 18:18:36;;;;;;;;;;;;;;;14.57;100.00;95045.84;10523128;28;1827;-76
2023/08/30 18:23:38;;;;;;;;;;;;;;;14.48;100.00;95050.44;10527172;28;1838;-76
2023/08/30 18:28:41;;;;;;;;;;;;;;;14.43;100.00;95055.97;10524244;28;1978;-74
2023/08/30 18:33:43;;;;;;;;;;;;;;;14.22;100.00;95066.56;10524989;28;1806;-74
2023/08/30 18:38:46;;;;;;;;;;;;;;;14.18;100.00;95070.19;10519603;28;1868;-75
2023/08/30 18:43:48;;;;;;;;;;;;;;;14.22;100.00;95082.78;10532405;28;2129;-75
2023/08/30 18:48:51;;;;;;;;;;;;;;;14.18;100.00;95084.50;10533385;28;1972;-75
2023/08/30 18:53:55;;;;;;;;;;;;;;;14.17;100.00;95096.44;10536796;28;1843;-75
2023/08/30 18:58:58;;;;;;;;;;;;;;;14.27;100.00;95106.97;10524091;28;2417;-76
2023/08/30 19:04:00;;;;;;;;;;;;;;;14.27;100.00;95112.38;10540549;28;1807;-76
2023/08/30 19:09:04;;;;;;;;;;;;;;;14.25;100.00;95119.19;10530685;28;1906;-75
2023/08/30 19:14:07;;;;;;;;;;;;;;;14.26;100.00;95120.81;10532451;28;1898;-77
2023/08/30 19:19:10;;;;;;;;;;;;;;;14.23;100.00;95127.63;10529263;28;1871;-75
2023/08/30 19:24:13;;;;;;;;;;;;;;;14.22;100.00;95131.44;10529582;28;1893;-74
2023/08/30 19:29:15;;;;;;;;;;;;;;;14.20;100.00;95139.06;10535604;28;1981;-74
2023/08/30 19:34:18;;;;;;;;;;;;;;;14.23;100.00;95137.66;10524484;28;1882;-75
2023/08/30 19:39:20;;;;;;;;;;;;;;;14.26;100.00;95132.44;10532147;28;1855;-75
2023/08/30 19:44:23;;;;;;;;;;;;;;;14.25;100.00;95140.81;10527548;28;4524;-76
2023/08/30 19:49:25;;;;;;;;;;;;;;;14.27;100.00;95136.72;10531869;28;1918;-73
2023/08/30 19:54:28;;;;;;;;;;;;;;;14.16;100.00;95143.50;10532898;28;2382;-75
2023/08/30 19:59:32;;;;;;;;;;;;;;;14.09;100.00;95145.06;10529331;28;1890;-74
2023/08/30 20:04:34;;;;;;;;;;;;;;;14.01;100.00;95141.22;10527606;28;2020;-73
2023/08/30 20:09:36;;;;;;;;;;;;;;;13.91;100.00;95144.97;10532027;28;2053;-72
2023/08/30 20:14:39;;;;;;;;;;;;;;;13.90;100.00;95137.97;10524066;28;1842;-72
2023/08/30 20:19:41;;;;;;;;;;;;;;;13.85;100.00;95140.00;10533429;28;1885;-72
2023/08/30 20:24:44;;;;;;;;;;;;;;;13.85;100.00;95138.09;10520405;28;1905;-72
2023/08/30 20:29:46;;;;;;;;;;;;;;;13.80;100.00;95135.50;10507615;28;1922;-72
2023/08/30 20:34:49;;;;;;;;;;;;;;;13.86;100.00;95138.88;10498059;28;1772;-72
2023/08/30 20:39:51;;;;;;;;;;;;;;;13.98;100.00;95131.00;10529783;28;2264;-74
2023/08/30 20:44:54;;;;;;;;;;;;;;;14.03;100.00;95134.38;10525992;28;4689;-73
2023/08/30 20:49:56;;;;;;;;;;;;;;;14.25;100.00;95122.72;10520170;28;2305;-74
2023/08/30 20:55:06;;;;;;;;;;;;;;;14.42;100.00;95124.66;10516376;28;1846;-74
2023/08/30 21:00:09;;;;;;;;;;;;;;;14.49;100.00;95119.63;10530260;28;1881;-76
2023/08/30 21:05:15;;;;;;;;;;;;;;;14.52;100.00;95124.44;10523214;28;1862;-75
2023/08/30 21:10:17;;;;;;;;;;;;;;;14.49;100.00;95125.03;10529462;28;1910;-78
2023/08/30 21:15:20;;;;;;;;;;;;;;;14.58;100.00;95130.50;10547648;28;1881;-73
2023/08/30 21:20:22;;;;;;;;;;;;;;;15.51;100.00;95110.31;10513659;28;1838;-73
2023/08/30 21:25:24;;;;;;;;;;;;;;;15.80;100.00;95102.34;10518284;28;1799;-71
2023/08/30 21:30:34;;;;;;;;;;;;;;;16.02;100.00;95103.22;10518570;28;1914;-70
2023/08/30 21:35:38;;;;;;;;;;;;;;;16.30;100.00;95100.91;10517164;28;1870;-74
2023/08/30 21:40:41;;;;;;;;;;;;;;;16.01;100.00;95091.59;10515539;28;4564;-70
2023/08/30 21:45:46;;;;;;;;;;;;;;;16.27;100.00;95091.47;10516468;28;2399;-69
2023/08/30 21:50:48;;;;;;;;;;;;;;;16.17;100.00;95098.09;10518294;28;1934;-70
2023/08/30 21:55:51;;;;;;;;;;;;;;;16.22;100.00;95091.66;10518843;28;1814;-73
2023/08/30 22:00:53;;;;;;;;;;;;;;;16.17;100.00;95086.44;10523582;28;1850;-73
2023/08/30 22:05:56;;;;;;;;;;;;;;;16.11;100.00;95091.25;10523202;28;1811;-71
2023/08/30 22:10:58;;;;;;;;;;;;;;;16.11;100.00;95093.16;10520127;28;1978;-73
2023/08/30 22:16:03;;;;;;;;;;;;;;;16.26;100.00;95102.66;10527202;28;1996;-72
2023/08/30 22:21:06;;;;;;;;;;;;;;;16.23;100.00;95108.75;10529904;28;1830;-72
2023/08/30 22:26:09;;;;;;;;;;;;;;;15.95;100.00;95103.72;10524831;28;1733;-72
2023/08/30 22:31:11;;;;;;;;;;;;;;;16.00;100.00;95114.41;10524843;28;1918;-73
2023/08/30 22:36:13;;;;;;;;;;;;;;;15.75;100.00;95109.84;10533702;28;1780;-73
2023/08/30 22:41:16;;;;;;;;;;;;;;;15.52;100.00;95112.69;10522597;28;4536;-75
2023/08/30 22:46:18;;;;;;;;;;;;;;;15.44;100.00;95120.84;10526090;28;1827;-75
2023/08/30 22:51:24;;;;;;;;;;;;;;;15.55;100.00;95105.88;10530559;28;2006;-72
2023/08/30 22:56:26;;;;;;;;;;;;;;;15.43;100.00;95111.13;10530176;28;1922;-72
2023/08/30 23:01:29;;;;;;;;;;;;;;;15.60;100.00;95109.22;10544157;28;1882;-72
2023/08/30 23:06:32;;;;;;;;;;;;;;;15.60;100.00;95109.22;10533536;28;1879;-73
2023/08/30 23:11:34;;;;;;;;;;;;;;;15.88;100.00;95103.44;10530471;28;1926;-72
2023/08/30 23:16:36;;;;;;;;;;;;;;;15.33;100.00;95107.66;10526620;28;1798;-71
2023/08/30 23:21:39;;;;;;;;;;;;;;;15.48;100.00;95117.19;10527398;28;1991;-73
2023/08/30 23:26:41;;;;;;;;;;;;;;;15.34;100.00;95122.78;10528784;28;2174;-70
2023/08/30 23:31:44;;;;;;;;;;;;;;;15.31;100.00;95120.69;10530416;28;1933;-73
2023/08/30 23:36:46;;;;;;;;;;;;;;;15.52;100.00;95117.31;10537683;28;1804;-72
2023/08/30 23:41:49;;;;;;;;;;;;;;;15.36;100.00;95125.97;10528217;28;4607;-72
2023/08/30 23:46:51;;;;;;;;;;;;;;;15.34;100.00;95122.00;10533883;28;1921;-72
2023/08/30 23:51:53;;;;;;;;;;;;;;;15.35;100.00;95118.94;10527930;28;1921;-72
2023/08/30 23:56:56;;;;;;;;;;;;;;;14.95;100.00;95121.03;10523359;28;1870;-71
